createdAt,value
2022-11-07T00:00:50.796Z,8.19
2022-11-07T00:03:54.050Z,8.41
2022-11-07T00:06:55.403Z,8.25
2022-11-07T00:09:56.808Z,8.20
2022-11-07T00:12:58.153Z,8.24
2022-11-07T00:15:59.895Z,8.21
2022-11-07T00:19:01.242Z,8.17
2022-11-07T00:22:02.622Z,8.12
2022-11-07T00:25:04.050Z,8.20
2022-11-07T00:28:05.381Z,8.26
2022-11-07T00:31:06.697Z,8.46
2022-11-07T00:34:08.139Z,8.48
2022-11-07T00:37:09.521Z,8.43
2022-11-07T00:40:11.014Z,8.64
2022-11-07T00:43:12.600Z,8.73
2022-11-07T00:46:14.753Z,8.66
2022-11-07T00:49:16.134Z,8.65
2022-11-07T00:52:17.449Z,8.64
2022-11-07T00:55:18.754Z,8.68
2022-11-07T00:58:20.103Z,8.68
2022-11-07T01:01:22.425Z,8.62
2022-11-07T01:04:42.594Z,8.87
2022-11-07T01:07:43.971Z,8.77
2022-11-07T01:10:45.285Z,8.68
2022-11-07T01:13:46.615Z,8.57
2022-11-07T01:16:48.069Z,8.51
2022-11-07T01:19:49.377Z,8.66
2022-11-07T01:22:50.749Z,8.61
2022-11-07T01:25:52.079Z,8.56
2022-11-07T01:28:53.393Z,8.50
2022-11-07T01:31:54.866Z,8.35
2022-11-07T01:34:56.180Z,8.33
2022-11-07T01:37:57.535Z,8.24
2022-11-07T01:41:17.670Z,8.15
2022-11-07T01:44:18.946Z,8.14
2022-11-07T01:47:20.269Z,8.15
2022-11-07T01:50:24.666Z,8.11
2022-11-07T01:53:26.270Z,8.14
2022-11-07T01:56:28.061Z,8.09
2022-11-07T01:59:29.777Z,8.11
2022-11-07T02:02:31.293Z,8.03
2022-11-07T02:05:34.323Z,8.02
2022-11-07T02:08:35.648Z,8.14
2022-11-07T02:11:36.968Z,8.22
2022-11-07T02:14:38.292Z,8.86
2022-11-07T02:17:39.651Z,8.75
2022-11-07T02:20:41.001Z,8.73
2022-11-07T02:23:46.124Z,8.67
2022-11-07T02:26:47.495Z,8.83
2022-11-07T02:29:49.622Z,8.83
2022-11-07T02:32:50.948Z,8.95
2022-11-07T02:35:52.530Z,9.12
2022-11-07T02:38:58.671Z,9.06
2022-11-07T02:42:00.084Z,9.33
2022-11-07T02:45:01.389Z,9.31
2022-11-07T02:48:02.814Z,9.29
2022-11-07T02:51:04.184Z,9.19
2022-11-07T02:54:05.511Z,9.17
2022-11-07T02:57:06.830Z,9.24
2022-11-07T03:00:09.277Z,9.22
2022-11-07T03:03:10.614Z,9.21
2022-11-07T03:06:13.008Z,9.30
2022-11-07T03:09:14.358Z,9.49
2022-11-07T03:12:15.683Z,9.56
2022-11-07T03:15:17.006Z,9.53
2022-11-07T03:18:18.636Z,9.50
2022-11-07T03:21:20.334Z,9.42
2022-11-07T03:24:21.662Z,9.50
2022-11-07T03:27:23.024Z,9.73
2022-11-07T03:30:24.374Z,9.59
2022-11-07T03:33:25.715Z,9.47
2022-11-07T03:36:27.044Z,9.68
2022-11-07T03:39:28.359Z,9.57
2022-11-07T03:42:29.700Z,9.71
2022-11-07T03:45:31.057Z,9.65
2022-11-07T03:48:32.377Z,9.56
2022-11-07T03:51:33.728Z,9.60
2022-11-07T03:54:35.181Z,9.63
2022-11-07T03:57:36.723Z,9.60
2022-11-07T04:00:38.071Z,9.53
2022-11-07T04:03:39.425Z,9.53
2022-11-07T04:06:40.752Z,9.44
2022-11-07T04:09:42.097Z,9.77
2022-11-07T04:13:02.740Z,9.84
2022-11-07T04:16:22.837Z,9.67
2022-11-07T04:19:26.509Z,9.63
2022-11-07T04:22:27.917Z,9.56
2022-11-07T04:25:47.640Z,9.61
2022-11-07T04:28:49.025Z,9.63
2022-11-07T04:31:50.499Z,9.58
2022-11-07T04:34:51.926Z,9.77
2022-11-07T04:37:53.298Z,9.75
2022-11-07T04:40:55.397Z,9.67
2022-11-07T04:43:56.776Z,9.54
2022-11-07T04:46:58.087Z,9.50
2022-11-07T04:49:59.416Z,9.51
2022-11-07T04:53:00.779Z,9.56
2022-11-07T04:56:02.094Z,9.61
2022-11-07T04:59:03.413Z,9.57
2022-11-07T05:02:04.806Z,9.46
2022-11-07T05:05:06.439Z,9.41
2022-11-07T05:08:08.523Z,9.30
2022-11-07T05:11:09.896Z,9.27
2022-11-07T05:14:11.217Z,9.21
2022-11-07T05:17:15.541Z,9.21
2022-11-07T05:20:22.894Z,9.11
2022-11-07T05:23:25.176Z,9.06
2022-11-07T05:26:26.529Z,9.06
2022-11-07T05:29:27.858Z,9.08
2022-11-07T05:32:29.195Z,9.06
2022-11-07T05:35:30.540Z,9.33
2022-11-07T05:38:31.930Z,9.41
2022-11-07T05:41:34.999Z,9.40
2022-11-07T05:44:36.736Z,9.34
2022-11-07T05:47:38.073Z,9.32
2022-11-07T05:50:39.500Z,9.21
2022-11-07T05:53:40.856Z,9.13
2022-11-07T05:56:43.987Z,9.18
2022-11-07T05:59:45.312Z,9.11
2022-11-07T06:02:53.406Z,9.05
2022-11-07T06:05:54.768Z,8.99
2022-11-07T06:08:56.279Z,8.95
2022-11-07T06:11:57.596Z,8.89
2022-11-07T06:14:59.165Z,8.94
2022-11-07T06:18:03.921Z,8.90
2022-11-07T06:21:05.362Z,8.97
2022-11-07T06:24:08.837Z,8.99
2022-11-07T06:27:14.268Z,8.98
2022-11-07T06:30:15.579Z,8.94
2022-11-07T06:33:18.126Z,9.13
2022-11-07T06:36:19.949Z,9.02
2022-11-07T06:39:21.433Z,8.98
2022-11-07T06:42:24.940Z,8.95
2022-11-07T06:45:26.266Z,8.94
2022-11-07T06:48:27.587Z,8.92
2022-11-07T06:51:28.953Z,8.89
2022-11-07T06:54:30.270Z,8.94
2022-11-07T06:57:31.641Z,8.92
2022-11-07T07:00:33.444Z,8.91
2022-11-07T07:03:34.878Z,8.84
2022-11-07T07:06:36.253Z,8.83
2022-11-07T07:09:37.595Z,8.84
2022-11-07T07:12:38.942Z,8.90
2022-11-07T07:15:50.507Z,8.92
2022-11-07T07:18:52.692Z,8.96
2022-11-07T07:21:54.093Z,9.03
2022-11-07T07:24:55.425Z,9.09
2022-11-07T07:27:56.796Z,9.13
2022-11-07T07:31:08.495Z,9.17
2022-11-07T07:34:09.828Z,9.36
2022-11-07T07:37:11.211Z,9.58
2022-11-07T07:40:12.582Z,9.78
2022-11-07T07:43:14.239Z,9.88
2022-11-07T07:46:16.461Z,9.96
2022-11-07T07:49:17.800Z,10.10
2022-11-07T07:52:19.184Z,10.19
2022-11-07T07:55:20.647Z,10.23
2022-11-07T07:58:21.996Z,10.34
2022-11-07T08:01:23.381Z,10.49
2022-11-07T08:04:24.804Z,10.57
2022-11-07T08:07:26.147Z,10.53
2022-11-07T08:10:41.505Z,10.57
2022-11-07T08:13:44.055Z,10.56
2022-11-07T08:16:45.378Z,10.56
2022-11-07T08:19:46.802Z,10.76
2022-11-07T08:22:48.148Z,10.98
2022-11-07T08:25:53.067Z,11.07
2022-11-07T08:28:54.625Z,11.06
2022-11-07T08:31:55.976Z,11.01
2022-11-07T08:34:57.339Z,11.10
2022-11-07T08:37:58.925Z,11.24
2022-11-07T08:41:00.293Z,11.46
2022-11-07T08:44:01.633Z,11.61
2022-11-07T08:47:08.321Z,11.78
2022-11-07T08:50:10.064Z,11.97
2022-11-07T08:53:11.482Z,12.37
2022-11-07T08:56:12.800Z,12.18
2022-11-07T08:59:14.364Z,11.99
2022-11-07T09:02:53.937Z,11.89
2022-11-07T09:05:36.996Z,11.78
2022-11-07T09:08:38.336Z,12.23
2022-11-07T09:11:40.285Z,12.49
2022-11-07T09:14:41.668Z,12.23
2022-11-07T09:17:42.999Z,12.06
2022-11-07T09:20:44.315Z,11.85
2022-11-07T09:23:45.653Z,11.76
2022-11-07T09:26:47.575Z,11.75
2022-11-07T09:29:48.892Z,11.62
2022-11-07T09:32:50.316Z,11.63
2022-11-07T09:35:51.678Z,11.61
2022-11-07T09:38:56.095Z,11.53
2022-11-07T09:41:59.292Z,11.61
2022-11-07T09:45:00.691Z,11.65
2022-11-07T09:48:03.742Z,11.79
2022-11-07T09:51:05.061Z,11.79
2022-11-07T09:54:13.713Z,11.88
2022-11-07T09:57:15.580Z,11.95
2022-11-07T10:00:17.487Z,12.14
2022-11-07T10:03:19.045Z,12.63
2022-11-07T10:06:34.044Z,12.42
2022-11-07T10:09:38.338Z,12.38
2022-11-07T10:12:44.755Z,12.31
2022-11-07T10:16:06.963Z,12.33
2022-11-07T10:19:16.352Z,12.56
2022-11-07T10:22:23.736Z,12.62
2022-11-07T10:25:28.662Z,12.48
2022-11-07T10:28:30.009Z,12.29
2022-11-07T10:31:33.272Z,12.27
2022-11-07T10:34:38.146Z,12.29
2022-11-07T10:37:39.488Z,12.23
2022-11-07T10:40:41.492Z,12.48
2022-11-07T10:43:43.313Z,12.68
2022-11-07T10:46:46.822Z,12.64
2022-11-07T10:49:55.177Z,12.58
2022-11-07T10:53:00.555Z,12.62
2022-11-07T10:56:01.905Z,12.60
2022-11-07T10:59:03.219Z,12.70
2022-11-07T11:02:14.070Z,12.83
2022-11-07T11:05:22.159Z,12.87
2022-11-07T11:08:23.952Z,12.98
2022-11-07T11:11:25.239Z,13.00
2022-11-07T11:14:26.640Z,13.14
2022-11-07T11:17:28.542Z,13.22
2022-11-07T11:20:30.968Z,13.47
2022-11-07T11:23:36.815Z,13.46
2022-11-07T11:26:38.170Z,13.34
2022-11-07T11:29:48.777Z,13.20
2022-11-07T11:32:56.794Z,13.09
2022-11-07T11:36:08.886Z,13.06
2022-11-07T11:39:15.139Z,13.07
2022-11-07T11:42:19.944Z,13.24
2022-11-07T11:45:39.811Z,13.37
2022-11-07T11:48:45.172Z,13.39
2022-11-07T11:51:48.485Z,13.41
2022-11-07T11:54:50.262Z,13.48
2022-11-07T11:57:58.986Z,13.71
2022-11-07T12:01:03.353Z,13.81
2022-11-07T12:04:12.211Z,13.87
2022-11-07T12:07:13.503Z,13.81
2022-11-07T12:10:27.123Z,13.73
2022-11-07T12:13:47.287Z,13.82
2022-11-07T12:16:48.578Z,13.79
2022-11-07T12:19:51.105Z,13.59
2022-11-07T12:23:04.697Z,13.57
2022-11-07T12:26:09.462Z,13.45
2022-11-07T12:29:28.089Z,13.26
2022-11-07T12:32:33.147Z,13.32
2022-11-07T12:35:54.079Z,13.29
2022-11-07T12:38:58.268Z,13.24
2022-11-07T12:42:02.595Z,13.17
2022-11-07T12:45:16.298Z,13.27
2022-11-07T12:48:32.007Z,13.11
2022-11-07T12:51:52.196Z,13.12
2022-11-07T12:54:55.710Z,13.15
2022-11-07T12:57:57.038Z,13.14
2022-11-07T13:00:58.441Z,13.18
2022-11-07T13:04:16.274Z,13.23
2022-11-07T13:07:20.216Z,13.30
2022-11-07T13:10:24.019Z,13.41
2022-11-07T13:13:40.584Z,13.48
2022-11-07T13:17:03.766Z,13.51
2022-11-07T13:20:05.536Z,13.44
2022-11-07T13:23:13.686Z,13.40
2022-11-07T13:26:45.326Z,13.19
2022-11-07T13:29:37.984Z,13.26
2022-11-07T13:32:42.671Z,13.25
2022-11-07T13:35:51.916Z,13.24
2022-11-07T13:38:54.873Z,13.22
2022-11-07T13:41:56.254Z,13.26
2022-11-07T13:45:07.517Z,13.23
2022-11-07T13:48:15.334Z,13.31
2022-11-07T13:51:28.921Z,13.25
2022-11-07T13:54:41.075Z,13.24
2022-11-07T13:58:03.429Z,13.14
2022-11-07T14:01:09.620Z,13.07
2022-11-07T14:04:17.638Z,13.01
2022-11-07T14:07:23.438Z,12.91
2022-11-07T14:10:32.062Z,12.84
2022-11-07T14:13:41.310Z,12.85
2022-11-07T14:16:46.160Z,12.82
2022-11-07T14:19:47.502Z,12.84
2022-11-07T14:22:50.360Z,12.78
2022-11-07T14:25:55.919Z,12.74
2022-11-07T14:28:57.808Z,12.70
2022-11-07T14:31:59.976Z,12.75
2022-11-07T14:35:01.330Z,12.72
2022-11-07T14:38:08.892Z,12.68
2022-11-07T14:41:10.237Z,12.60
2022-11-07T14:44:13.214Z,12.62
2022-11-07T14:47:19.148Z,12.60
2022-11-07T14:50:24.179Z,12.70
2022-11-07T14:53:31.303Z,12.63
2022-11-07T14:56:33.742Z,12.56
2022-11-07T14:59:35.584Z,12.51
2022-11-07T15:02:37.041Z,12.48
2022-11-07T15:05:38.362Z,12.47
2022-11-07T15:08:39.675Z,12.46
2022-11-07T15:11:41.767Z,12.38
2022-11-07T15:14:43.112Z,12.34
2022-11-07T15:17:54.926Z,12.34
2022-11-07T15:20:57.219Z,12.27
2022-11-07T15:23:58.984Z,12.24
2022-11-07T15:27:15.580Z,12.16
2022-11-07T15:30:30.838Z,12.07
2022-11-07T15:33:32.279Z,11.95
2022-11-07T15:36:36.211Z,11.78
2022-11-07T15:39:41.691Z,11.70
2022-11-07T15:42:43.172Z,11.64
2022-11-07T15:45:44.533Z,11.54
2022-11-07T15:48:45.891Z,11.44
2022-11-07T15:51:47.287Z,11.35
2022-11-07T15:54:48.618Z,11.25
2022-11-07T15:57:51.466Z,11.16
2022-11-07T16:00:52.886Z,11.01
2022-11-07T16:03:55.354Z,10.94
2022-11-07T16:06:56.684Z,10.91
2022-11-07T16:09:58.114Z,10.87
2022-11-07T16:13:03.906Z,10.80
2022-11-07T16:16:06.494Z,10.70
2022-11-07T16:19:08.648Z,10.66
2022-11-07T16:22:10.594Z,10.55
2022-11-07T16:25:21.465Z,10.50
2022-11-07T16:28:27.210Z,10.40
2022-11-07T16:31:28.964Z,10.32
2022-11-07T16:34:30.319Z,10.25
2022-11-07T16:37:31.670Z,10.22
2022-11-07T16:40:33.045Z,10.18
2022-11-07T16:43:35.537Z,10.14
2022-11-07T16:46:36.912Z,10.04
2022-11-07T16:49:39.250Z,9.97
2022-11-07T16:52:40.647Z,9.83
2022-11-07T16:55:43.114Z,9.78
2022-11-07T16:58:44.470Z,9.70
2022-11-07T17:01:45.943Z,9.65
2022-11-07T17:04:47.426Z,9.56
2022-11-07T17:07:49.368Z,9.53
2022-11-07T17:10:50.752Z,9.49
2022-11-07T17:13:52.083Z,9.44
2022-11-07T17:16:53.439Z,9.36
2022-11-07T17:19:54.784Z,9.28
2022-11-07T17:22:56.211Z,9.27
2022-11-07T17:25:59.571Z,9.18
2022-11-07T17:29:00.944Z,9.14
2022-11-07T17:32:02.302Z,9.07
2022-11-07T17:35:31.653Z,9.00
2022-11-07T17:38:25.472Z,8.94
2022-11-07T17:41:30.059Z,8.82
2022-11-07T17:44:31.387Z,8.81
2022-11-07T17:47:34.341Z,8.73
2022-11-07T17:50:35.846Z,8.65
2022-11-07T17:53:37.237Z,8.60
2022-11-07T17:56:38.637Z,8.52
2022-11-07T17:59:45.623Z,8.49
2022-11-07T18:02:48.279Z,8.40
2022-11-07T18:05:49.761Z,8.27
2022-11-07T18:08:52.861Z,8.25
2022-11-07T18:11:54.599Z,8.18
2022-11-07T18:14:56.539Z,8.08
2022-11-07T18:17:57.901Z,8.03
2022-11-07T18:20:59.920Z,7.98
2022-11-07T18:24:01.320Z,7.92
2022-11-07T18:27:05.579Z,7.83
2022-11-07T18:30:10.992Z,7.71
2022-11-07T18:33:12.380Z,7.72
2022-11-07T18:36:14.624Z,7.74
2022-11-07T18:39:17.023Z,7.68
2022-11-07T18:42:18.382Z,7.65
2022-11-07T18:45:19.801Z,7.56
2022-11-07T18:48:21.218Z,7.42
2022-11-07T18:51:23.249Z,7.35
2022-11-07T18:54:26.153Z,7.27
2022-11-07T18:57:27.633Z,7.28
2022-11-07T19:00:30.917Z,7.26
2022-11-07T19:03:32.623Z,7.23
2022-11-07T19:06:33.951Z,7.08
2022-11-07T19:09:35.807Z,7.12
2022-11-07T19:12:37.164Z,7.10
2022-11-07T19:15:39.425Z,7.11
2022-11-07T19:18:42.189Z,7.06
2022-11-07T19:21:46.615Z,7.07
2022-11-07T19:24:48.025Z,7.05
2022-11-07T19:27:50.572Z,6.93
2022-11-07T19:30:51.894Z,6.90
2022-11-07T19:33:53.238Z,6.87
2022-11-07T19:36:54.653Z,6.88
2022-11-07T19:39:55.975Z,6.80
2022-11-07T19:42:57.309Z,6.62
2022-11-07T19:45:58.744Z,6.52
2022-11-07T19:49:00.080Z,6.48
2022-11-07T19:52:01.533Z,6.42
2022-11-07T19:55:02.966Z,6.37
2022-11-07T19:58:04.290Z,6.40
2022-11-07T20:01:09.953Z,6.39
2022-11-07T20:04:11.361Z,6.42
2022-11-07T20:07:13.332Z,6.34
2022-11-07T20:10:14.680Z,6.26
2022-11-07T20:13:16.359Z,6.28
2022-11-07T20:16:17.963Z,6.27
2022-11-07T20:19:19.278Z,6.25
2022-11-07T20:22:20.625Z,6.23
2022-11-07T20:25:21.949Z,6.24
2022-11-07T20:28:23.328Z,6.25
2022-11-07T20:31:25.441Z,6.21
2022-11-07T20:34:26.786Z,6.21
2022-11-07T20:37:28.141Z,6.13
2022-11-07T20:40:29.939Z,6.08
2022-11-07T20:43:32.302Z,6.03
2022-11-07T20:46:34.816Z,6.06
2022-11-07T20:49:36.288Z,6.05
2022-11-07T20:52:37.670Z,5.98
2022-11-07T20:55:39.819Z,5.89
2022-11-07T20:58:41.809Z,5.91
2022-11-07T21:01:43.227Z,5.92
2022-11-07T21:05:11.236Z,5.89
2022-11-07T21:08:06.015Z,5.82
2022-11-07T21:11:07.342Z,5.81
2022-11-07T21:14:09.149Z,5.74
2022-11-07T21:17:10.475Z,5.61
2022-11-07T21:20:11.917Z,5.55
2022-11-07T21:23:13.386Z,5.49
2022-11-07T21:26:31.811Z,5.41
2022-11-07T21:29:33.305Z,5.35
2022-11-07T21:32:34.691Z,5.28
2022-11-07T21:35:39.609Z,5.25
2022-11-07T21:38:41.272Z,5.22
2022-11-07T21:41:42.642Z,5.20
2022-11-07T21:44:43.994Z,5.25
2022-11-07T21:47:46.126Z,5.18
2022-11-07T21:50:47.560Z,5.05
2022-11-07T21:53:48.971Z,5.04
2022-11-07T21:56:50.293Z,5.10
2022-11-07T21:59:51.682Z,5.11
2022-11-07T22:02:53.013Z,5.01
2022-11-07T22:05:54.376Z,5.01
2022-11-07T22:08:55.712Z,4.93
2022-11-07T22:11:57.716Z,4.88
2022-11-07T22:14:59.040Z,4.89
2022-11-07T22:18:00.379Z,4.87
2022-11-07T22:21:02.071Z,4.84
2022-11-07T22:24:03.436Z,4.78
2022-11-07T22:27:04.780Z,4.71
2022-11-07T22:30:06.242Z,4.70
2022-11-07T22:33:07.569Z,4.71
2022-11-07T22:36:09.326Z,4.71
2022-11-07T22:39:10.682Z,4.69
2022-11-07T22:42:12.023Z,4.72
2022-11-07T22:45:13.622Z,4.73
2022-11-07T22:48:14.976Z,4.67
2022-11-07T22:51:17.706Z,4.66
2022-11-07T22:54:19.010Z,4.61
2022-11-07T22:57:20.330Z,4.53
2022-11-07T23:00:22.182Z,4.53
2022-11-07T23:03:23.756Z,4.49
2022-11-07T23:06:25.359Z,4.44
2022-11-07T23:09:26.696Z,4.47
2022-11-07T23:12:28.060Z,4.52
2022-11-07T23:15:30.341Z,4.44
2022-11-07T23:18:31.732Z,4.39
2022-11-07T23:21:33.170Z,4.41
2022-11-07T23:24:34.502Z,4.42
2022-11-07T23:27:35.900Z,4.33
2022-11-07T23:30:37.841Z,4.28
2022-11-07T23:33:39.591Z,4.28
2022-11-07T23:36:43.865Z,4.31
2022-11-07T23:39:45.532Z,4.27
2022-11-07T23:42:46.954Z,4.25
2022-11-07T23:46:06.995Z,4.22
2022-11-07T23:49:27.502Z,4.24
2022-11-07T23:52:28.835Z,4.13
2022-11-07T23:55:42.362Z,4.08
2022-11-07T23:59:02.464Z,4.09
